sensor_id;sensor_type;location;lat;lon;timestamp;P1;durP1;ratioP1;P2;durP2;ratioP2
23080;SDS011;11708;50.570;8.532;2023-04-07T00:00:51;8.50;;;6.40;;
23080;SDS011;11708;50.570;8.532;2023-04-07T00:03:17;10.98;;;6.65;;
23080;SDS011;11708;50.570;8.532;2023-04-07T00:05:43;10.45;;;6.70;;
23080;SDS011;11708;50.570;8.532;2023-04-07T00:08:08;11.15;;;7.03;;
23080;SDS011;11708;50.570;8.532;2023-04-07T00:10:34;11.90;;;7.70;;
23080;SDS011;11708;50.570;8.532;2023-04-07T00:12:59;11.43;;;7.53;;
23080;SDS011;11708;50.570;8.532;2023-04-07T00:15:26;11.20;;;7.47;;
23080;SDS011;11708;50.570;8.532;2023-04-07T00:17:51;13.10;;;7.70;;
23080;SDS011;11708;50.570;8.532;2023-04-07T00:20:17;12.07;;;7.90;;
23080;SDS011;11708;50.570;8.532;2023-04-07T00:22:42;14.63;;;7.70;;
23080;SDS011;11708;50.570;8.532;2023-04-07T00:25:08;10.23;;;6.53;;
23080;SDS011;11708;50.570;8.532;2023-04-07T00:27:33;11.85;;;7.45;;
23080;SDS011;11708;50.570;8.532;2023-04-07T00:29:59;8.98;;;6.57;;
23080;SDS011;11708;50.570;8.532;2023-04-07T00:32:25;11.15;;;7.25;;
23080;SDS011;11708;50.570;8.532;2023-04-07T00:34:50;10.15;;;7.00;;
23080;SDS011;11708;50.570;8.532;2023-04-07T00:37:16;10.40;;;6.72;;
23080;SDS011;11708;50.570;8.532;2023-04-07T00:39:42;12.93;;;7.68;;
23080;SDS011;11708;50.570;8.532;2023-04-07T00:42:08;10.88;;;7.15;;
23080;SDS011;11708;50.570;8.532;2023-04-07T00:44:33;14.35;;;9.32;;
23080;SDS011;11708;50.570;8.532;2023-04-07T00:46:59;14.80;;;9.15;;
23080;SDS011;11708;50.570;8.532;2023-04-07T00:49:25;14.35;;;8.60;;
23080;SDS011;11708;50.570;8.532;2023-04-07T00:51:55;16.83;;;9.57;;
23080;SDS011;11708;50.570;8.532;2023-04-07T00:54:22;15.18;;;10.00;;
23080;SDS011;11708;50.570;8.532;2023-04-07T00:56:48;13.80;;;9.50;;
23080;SDS011;11708;50.570;8.532;2023-04-07T00:59:14;15.45;;;10.40;;
23080;SDS011;11708;50.570;8.532;2023-04-07T01:01:44;14.57;;;10.27;;
23080;SDS011;11708;50.570;8.532;2023-04-07T01:04:23;16.52;;;10.07;;
23080;SDS011;11708;50.570;8.532;2023-04-07T01:07:07;17.48;;;10.82;;
23080;SDS011;11708;50.570;8.532;2023-04-07T01:09:46;17.30;;;10.85;;
23080;SDS011;11708;50.570;8.532;2023-04-07T01:12:28;17.55;;;11.38;;
23080;SDS011;11708;50.570;8.532;2023-04-07T01:15:20;19.95;;;11.80;;
23080;SDS011;11708;50.570;8.532;2023-04-07T01:17:48;19.88;;;11.88;;
23080;SDS011;11708;50.570;8.532;2023-04-07T01:20:20;20.95;;;13.18;;
23080;SDS011;11708;50.570;8.532;2023-04-07T01:22:52;17.85;;;11.93;;
23080;SDS011;11708;50.570;8.532;2023-04-07T01:25:31;21.35;;;12.68;;
23080;SDS011;11708;50.570;8.532;2023-04-07T01:31:02;21.27;;;13.35;;
23080;SDS011;11708;50.570;8.532;2023-04-07T01:33:30;21.17;;;13.73;;
23080;SDS011;11708;50.570;8.532;2023-04-07T01:35:58;23.35;;;13.85;;
23080;SDS011;11708;50.570;8.532;2023-04-07T01:38:25;23.35;;;14.48;;
23080;SDS011;11708;50.570;8.532;2023-04-07T01:40:52;22.42;;;13.50;;
23080;SDS011;11708;50.570;8.532;2023-04-07T01:43:20;19.00;;;13.07;;
23080;SDS011;11708;50.570;8.532;2023-04-07T01:45:47;23.38;;;14.63;;
23080;SDS011;11708;50.570;8.532;2023-04-07T01:48:13;23.35;;;13.95;;
23080;SDS011;11708;50.570;8.532;2023-04-07T01:50:39;28.15;;;16.15;;
23080;SDS011;11708;50.570;8.532;2023-04-07T01:53:06;25.13;;;14.52;;
23080;SDS011;11708;50.570;8.532;2023-04-07T01:55:32;27.52;;;14.68;;
23080;SDS011;11708;50.570;8.532;2023-04-07T01:58:02;24.20;;;15.23;;
23080;SDS011;11708;50.570;8.532;2023-04-07T02:00:29;26.77;;;15.77;;
23080;SDS011;11708;50.570;8.532;2023-04-07T02:02:56;26.48;;;15.18;;
23080;SDS011;11708;50.570;8.532;2023-04-07T02:05:26;27.20;;;15.75;;
23080;SDS011;11708;50.570;8.532;2023-04-07T02:08:00;24.25;;;15.25;;
23080;SDS011;11708;50.570;8.532;2023-04-07T02:10:29;23.85;;;14.77;;
23080;SDS011;11708;50.570;8.532;2023-04-07T02:12:59;23.88;;;15.20;;
23080;SDS011;11708;50.570;8.532;2023-04-07T02:15:25;26.30;;;15.57;;
23080;SDS011;11708;50.570;8.532;2023-04-07T02:17:52;23.83;;;14.38;;
23080;SDS011;11708;50.570;8.532;2023-04-07T02:20:20;22.88;;;14.43;;
23080;SDS011;11708;50.570;8.532;2023-04-07T02:22:47;23.70;;;15.18;;
23080;SDS011;11708;50.570;8.532;2023-04-07T02:25:26;22.88;;;14.10;;
23080;SDS011;11708;50.570;8.532;2023-04-07T02:27:54;23.92;;;14.35;;
23080;SDS011;11708;50.570;8.532;2023-04-07T02:30:20;23.27;;;14.57;;
23080;SDS011;11708;50.570;8.532;2023-04-07T02:32:46;23.05;;;14.60;;
23080;SDS011;11708;50.570;8.532;2023-04-07T02:35:13;23.30;;;14.32;;
23080;SDS011;11708;50.570;8.532;2023-04-07T02:37:40;21.38;;;13.82;;
23080;SDS011;11708;50.570;8.532;2023-04-07T02:40:06;20.80;;;13.05;;
23080;SDS011;11708;50.570;8.532;2023-04-07T02:42:32;22.17;;;13.52;;
23080;SDS011;11708;50.570;8.532;2023-04-07T02:44:58;20.45;;;12.70;;
23080;SDS011;11708;50.570;8.532;2023-04-07T02:47:24;19.75;;;12.93;;
23080;SDS011;11708;50.570;8.532;2023-04-07T02:49:49;19.63;;;12.38;;
23080;SDS011;11708;50.570;8.532;2023-04-07T02:52:15;19.92;;;12.60;;
23080;SDS011;11708;50.570;8.532;2023-04-07T02:54:41;18.60;;;12.25;;
23080;SDS011;11708;50.570;8.532;2023-04-07T02:57:06;20.10;;;12.05;;
23080;SDS011;11708;50.570;8.532;2023-04-07T02:59:32;19.48;;;11.80;;
23080;SDS011;11708;50.570;8.532;2023-04-07T03:01:58;15.55;;;10.65;;
23080;SDS011;11708;50.570;8.532;2023-04-07T03:04:23;15.98;;;10.90;;
23080;SDS011;11708;50.570;8.532;2023-04-07T03:06:49;20.15;;;12.25;;
23080;SDS011;11708;50.570;8.532;2023-04-07T03:09:14;19.75;;;11.85;;
23080;SDS011;11708;50.570;8.532;2023-04-07T03:11:40;19.63;;;11.55;;
23080;SDS011;11708;50.570;8.532;2023-04-07T03:14:06;17.10;;;11.25;;
23080;SDS011;11708;50.570;8.532;2023-04-07T03:16:32;17.80;;;11.65;;
23080;SDS011;11708;50.570;8.532;2023-04-07T03:18:57;16.42;;;11.05;;
23080;SDS011;11708;50.570;8.532;2023-04-07T03:21:23;17.65;;;11.25;;
23080;SDS011;11708;50.570;8.532;2023-04-07T03:23:48;16.60;;;10.75;;
23080;SDS011;11708;50.570;8.532;2023-04-07T03:26:14;17.15;;;11.70;;
23080;SDS011;11708;50.570;8.532;2023-04-07T03:28:40;21.80;;;12.85;;
23080;SDS011;11708;50.570;8.532;2023-04-07T03:31:05;17.40;;;11.18;;
23080;SDS011;11708;50.570;8.532;2023-04-07T03:33:31;17.30;;;12.07;;
23080;SDS011;11708;50.570;8.532;2023-04-07T03:35:56;20.25;;;12.98;;
23080;SDS011;11708;50.570;8.532;2023-04-07T03:38:22;22.38;;;12.75;;
23080;SDS011;11708;50.570;8.532;2023-04-07T03:40:49;20.65;;;12.95;;
23080;SDS011;11708;50.570;8.532;2023-04-07T03:43:15;20.38;;;12.57;;
23080;SDS011;11708;50.570;8.532;2023-04-07T03:45:40;18.00;;;11.23;;
23080;SDS011;11708;50.570;8.532;2023-04-07T03:48:06;20.35;;;12.05;;
23080;SDS011;11708;50.570;8.532;2023-04-07T03:50:39;18.70;;;12.32;;
23080;SDS011;11708;50.570;8.532;2023-04-07T03:53:05;20.75;;;12.02;;
23080;SDS011;11708;50.570;8.532;2023-04-07T03:55:31;19.05;;;12.23;;
23080;SDS011;11708;50.570;8.532;2023-04-07T03:57:57;18.30;;;10.98;;
23080;SDS011;11708;50.570;8.532;2023-04-07T04:00:23;18.42;;;11.82;;
23080;SDS011;11708;50.570;8.532;2023-04-07T04:02:49;20.52;;;12.55;;
23080;SDS011;11708;50.570;8.532;2023-04-07T04:05:15;20.30;;;12.57;;
23080;SDS011;11708;50.570;8.532;2023-04-07T04:07:40;20.83;;;12.88;;
23080;SDS011;11708;50.570;8.532;2023-04-07T04:10:06;17.55;;;11.68;;
23080;SDS011;11708;50.570;8.532;2023-04-07T04:12:32;18.75;;;11.80;;
23080;SDS011;11708;50.570;8.532;2023-04-07T04:14:57;18.80;;;11.50;;
23080;SDS011;11708;50.570;8.532;2023-04-07T04:17:23;20.60;;;12.13;;
23080;SDS011;11708;50.570;8.532;2023-04-07T04:19:49;19.58;;;11.85;;
23080;SDS011;11708;50.570;8.532;2023-04-07T04:22:15;18.83;;;11.70;;
23080;SDS011;11708;50.570;8.532;2023-04-07T04:24:41;17.95;;;11.40;;
23080;SDS011;11708;50.570;8.532;2023-04-07T04:27:07;18.88;;;11.57;;
23080;SDS011;11708;50.570;8.532;2023-04-07T04:29:32;18.90;;;10.68;;
23080;SDS011;11708;50.570;8.532;2023-04-07T04:31:58;19.85;;;12.32;;
23080;SDS011;11708;50.570;8.532;2023-04-07T04:34:23;17.45;;;11.18;;
23080;SDS011;11708;50.570;8.532;2023-04-07T04:36:49;21.65;;;12.40;;
23080;SDS011;11708;50.570;8.532;2023-04-07T04:39:14;20.40;;;12.88;;
23080;SDS011;11708;50.570;8.532;2023-04-07T04:41:40;18.98;;;11.98;;
23080;SDS011;11708;50.570;8.532;2023-04-07T04:44:06;19.58;;;12.13;;
23080;SDS011;11708;50.570;8.532;2023-04-07T04:46:31;20.05;;;11.55;;
23080;SDS011;11708;50.570;8.532;2023-04-07T04:48:57;20.88;;;11.63;;
23080;SDS011;11708;50.570;8.532;2023-04-07T04:51:22;20.25;;;11.88;;
23080;SDS011;11708;50.570;8.532;2023-04-07T04:53:48;17.90;;;11.20;;
23080;SDS011;11708;50.570;8.532;2023-04-07T04:56:13;21.23;;;11.55;;
23080;SDS011;11708;50.570;8.532;2023-04-07T04:58:39;19.33;;;11.35;;
23080;SDS011;11708;50.570;8.532;2023-04-07T05:01:09;18.33;;;11.18;;
23080;SDS011;11708;50.570;8.532;2023-04-07T05:03:37;19.90;;;11.68;;
23080;SDS011;11708;50.570;8.532;2023-04-07T05:06:02;21.30;;;12.88;;
23080;SDS011;11708;50.570;8.532;2023-04-07T05:08:28;18.75;;;11.30;;
23080;SDS011;11708;50.570;8.532;2023-04-07T05:10:54;17.23;;;11.25;;
23080;SDS011;11708;50.570;8.532;2023-04-07T05:13:19;18.40;;;11.63;;
23080;SDS011;11708;50.570;8.532;2023-04-07T05:15:45;19.35;;;11.93;;
23080;SDS011;11708;50.570;8.532;2023-04-07T05:18:11;18.58;;;10.90;;
23080;SDS011;11708;50.570;8.532;2023-04-07T05:20:37;18.05;;;11.27;;
23080;SDS011;11708;50.570;8.532;2023-04-07T05:23:02;16.23;;;10.00;;
23080;SDS011;11708;50.570;8.532;2023-04-07T05:25:28;19.13;;;11.50;;
23080;SDS011;11708;50.570;8.532;2023-04-07T05:27:54;19.45;;;11.70;;
23080;SDS011;11708;50.570;8.532;2023-04-07T05:30:21;16.63;;;10.15;;
23080;SDS011;11708;50.570;8.532;2023-04-07T05:32:47;17.77;;;10.85;;
23080;SDS011;11708;50.570;8.532;2023-04-07T05:35:13;18.25;;;10.63;;
23080;SDS011;11708;50.570;8.532;2023-04-07T05:37:38;16.83;;;9.93;;
23080;SDS011;11708;50.570;8.532;2023-04-07T05:40:04;16.08;;;10.07;;
23080;SDS011;11708;50.570;8.532;2023-04-07T05:42:30;15.68;;;10.00;;
23080;SDS011;11708;50.570;8.532;2023-04-07T05:44:56;15.95;;;10.48;;
23080;SDS011;11708;50.570;8.532;2023-04-07T05:47:22;16.75;;;9.70;;
23080;SDS011;11708;50.570;8.532;2023-04-07T05:49:47;15.38;;;9.73;;
23080;SDS011;11708;50.570;8.532;2023-04-07T05:52:13;14.88;;;10.05;;
23080;SDS011;11708;50.570;8.532;2023-04-07T05:54:38;16.35;;;10.43;;
23080;SDS011;11708;50.570;8.532;2023-04-07T05:57:04;13.35;;;9.50;;
23080;SDS011;11708;50.570;8.532;2023-04-07T05:59:31;12.18;;;8.38;;
23080;SDS011;11708;50.570;8.532;2023-04-07T06:01:57;14.95;;;9.65;;
23080;SDS011;11708;50.570;8.532;2023-04-07T06:04:22;14.73;;;9.32;;
23080;SDS011;11708;50.570;8.532;2023-04-07T06:06:48;13.95;;;9.32;;
23080;SDS011;11708;50.570;8.532;2023-04-07T06:09:13;14.02;;;9.63;;
23080;SDS011;11708;50.570;8.532;2023-04-07T06:11:39;15.50;;;9.85;;
23080;SDS011;11708;50.570;8.532;2023-04-07T06:14:04;16.50;;;9.75;;
23080;SDS011;11708;50.570;8.532;2023-04-07T06:16:30;14.43;;;9.05;;
23080;SDS011;11708;50.570;8.532;2023-04-07T06:18:55;15.30;;;9.70;;
23080;SDS011;11708;50.570;8.532;2023-04-07T06:21:21;15.20;;;9.30;;
23080;SDS011;11708;50.570;8.532;2023-04-07T06:23:47;15.50;;;9.30;;
23080;SDS011;11708;50.570;8.532;2023-04-07T06:26:12;14.80;;;9.68;;
23080;SDS011;11708;50.570;8.532;2023-04-07T06:28:38;14.75;;;9.45;;
23080;SDS011;11708;50.570;8.532;2023-04-07T06:31:04;15.90;;;10.38;;
23080;SDS011;11708;50.570;8.532;2023-04-07T06:33:30;15.75;;;9.95;;
23080;SDS011;11708;50.570;8.532;2023-04-07T06:35:55;14.90;;;9.10;;
23080;SDS011;11708;50.570;8.532;2023-04-07T06:38:21;15.20;;;10.02;;
23080;SDS011;11708;50.570;8.532;2023-04-07T06:40:47;14.95;;;9.25;;
23080;SDS011;11708;50.570;8.532;2023-04-07T06:43:12;16.27;;;10.23;;
23080;SDS011;11708;50.570;8.532;2023-04-07T06:45:38;17.48;;;10.57;;
23080;SDS011;11708;50.570;8.532;2023-04-07T06:48:04;14.82;;;9.25;;
23080;SDS011;11708;50.570;8.532;2023-04-07T06:50:30;15.38;;;9.77;;
23080;SDS011;11708;50.570;8.532;2023-04-07T06:52:55;16.63;;;8.98;;
23080;SDS011;11708;50.570;8.532;2023-04-07T06:55:21;15.30;;;10.00;;
23080;SDS011;11708;50.570;8.532;2023-04-07T06:57:46;14.48;;;9.35;;
23080;SDS011;11708;50.570;8.532;2023-04-07T07:00:12;13.43;;;8.98;;
23080;SDS011;11708;50.570;8.532;2023-04-07T07:02:39;27.77;;;15.27;;
23080;SDS011;11708;50.570;8.532;2023-04-07T07:05:04;15.77;;;10.30;;
23080;SDS011;11708;50.570;8.532;2023-04-07T07:07:30;15.35;;;9.50;;
23080;SDS011;11708;50.570;8.532;2023-04-07T07:09:56;14.18;;;9.02;;
23080;SDS011;11708;50.570;8.532;2023-04-07T07:12:22;16.70;;;9.32;;
23080;SDS011;11708;50.570;8.532;2023-04-07T07:14:47;14.15;;;9.00;;
23080;SDS011;11708;50.570;8.532;2023-04-07T07:17:13;13.57;;;8.93;;
23080;SDS011;11708;50.570;8.532;2023-04-07T07:19:38;13.02;;;8.73;;
23080;SDS011;11708;50.570;8.532;2023-04-07T07:22:04;13.98;;;8.20;;
23080;SDS011;11708;50.570;8.532;2023-04-07T07:24:29;13.15;;;8.40;;
23080;SDS011;11708;50.570;8.532;2023-04-07T07:26:57;14.50;;;9.20;;
23080;SDS011;11708;50.570;8.532;2023-04-07T07:29:24;12.05;;;8.13;;
23080;SDS011;11708;50.570;8.532;2023-04-07T07:31:50;11.68;;;7.70;;
23080;SDS011;11708;50.570;8.532;2023-04-07T07:34:15;11.80;;;7.93;;
23080;SDS011;11708;50.570;8.532;2023-04-07T07:36:41;12.07;;;7.68;;
23080;SDS011;11708;50.570;8.532;2023-04-07T07:39:06;71.03;;;31.20;;
23080;SDS011;11708;50.570;8.532;2023-04-07T07:41:32;14.15;;;8.50;;
23080;SDS011;11708;50.570;8.532;2023-04-07T07:43:57;14.13;;;8.77;;
23080;SDS011;11708;50.570;8.532;2023-04-07T07:46:23;11.45;;;7.75;;
23080;SDS011;11708;50.570;8.532;2023-04-07T07:48:51;11.13;;;7.70;;
23080;SDS011;11708;50.570;8.532;2023-04-07T07:51:16;12.50;;;8.43;;
23080;SDS011;11708;50.570;8.532;2023-04-07T07:53:43;12.80;;;8.77;;
23080;SDS011;11708;50.570;8.532;2023-04-07T07:56:09;12.23;;;8.55;;
23080;SDS011;11708;50.570;8.532;2023-04-07T07:58:35;12.32;;;8.02;;
23080;SDS011;11708;50.570;8.532;2023-04-07T08:01:00;14.10;;;8.02;;
23080;SDS011;11708;50.570;8.532;2023-04-07T08:03:26;13.35;;;8.15;;
23080;SDS011;11708;50.570;8.532;2023-04-07T08:05:51;14.02;;;8.15;;
23080;SDS011;11708;50.570;8.532;2023-04-07T08:08:17;13.52;;;8.23;;
23080;SDS011;11708;50.570;8.532;2023-04-07T08:10:43;13.23;;;8.02;;
23080;SDS011;11708;50.570;8.532;2023-04-07T08:13:08;11.20;;;7.43;;
23080;SDS011;11708;50.570;8.532;2023-04-07T08:15:34;11.73;;;7.40;;
23080;SDS011;11708;50.570;8.532;2023-04-07T08:18:00;11.05;;;7.22;;
23080;SDS011;11708;50.570;8.532;2023-04-07T08:20:28;10.95;;;7.22;;
23080;SDS011;11708;50.570;8.532;2023-04-07T08:22:54;9.68;;;6.50;;
23080;SDS011;11708;50.570;8.532;2023-04-07T08:25:20;11.45;;;7.35;;
23080;SDS011;11708;50.570;8.532;2023-04-07T08:27:45;9.77;;;6.82;;
23080;SDS011;11708;50.570;8.532;2023-04-07T08:30:11;9.65;;;6.50;;
23080;SDS011;11708;50.570;8.532;2023-04-07T08:32:38;11.77;;;6.88;;
23080;SDS011;11708;50.570;8.532;2023-04-07T08:35:05;11.68;;;7.07;;
23080;SDS011;11708;50.570;8.532;2023-04-07T08:37:32;37.85;;;22.38;;
23080;SDS011;11708;50.570;8.532;2023-04-07T08:39:58;43.55;;;21.15;;
23080;SDS011;11708;50.570;8.532;2023-04-07T08:42:26;16.90;;;9.30;;
23080;SDS011;11708;50.570;8.532;2023-04-07T08:44:55;10.25;;;7.45;;
23080;SDS011;11708;50.570;8.532;2023-04-07T08:47:26;10.60;;;6.43;;
23080;SDS011;11708;50.570;8.532;2023-04-07T08:49:55;11.65;;;6.75;;
23080;SDS011;11708;50.570;8.532;2023-04-07T08:52:27;11.70;;;6.65;;
23080;SDS011;11708;50.570;8.532;2023-04-07T08:54:59;11.50;;;6.78;;
23080;SDS011;11708;50.570;8.532;2023-04-07T08:57:30;9.63;;;6.40;;
23080;SDS011;11708;50.570;8.532;2023-04-07T08:59:57;11.02;;;7.00;;
23080;SDS011;11708;50.570;8.532;2023-04-07T09:02:33;9.05;;;6.28;;
23080;SDS011;11708;50.570;8.532;2023-04-07T09:05:02;9.07;;;6.25;;
23080;SDS011;11708;50.570;8.532;2023-04-07T09:07:30;10.20;;;6.28;;
23080;SDS011;11708;50.570;8.532;2023-04-07T09:09:57;12.02;;;7.40;;
23080;SDS011;11708;50.570;8.532;2023-04-07T09:12:22;9.32;;;6.45;;
23080;SDS011;11708;50.570;8.532;2023-04-07T09:14:48;9.60;;;6.00;;
23080;SDS011;11708;50.570;8.532;2023-04-07T09:17:14;11.65;;;7.20;;
23080;SDS011;11708;50.570;8.532;2023-04-07T09:19:39;11.68;;;7.13;;
23080;SDS011;11708;50.570;8.532;2023-04-07T09:22:05;9.77;;;6.45;;
23080;SDS011;11708;50.570;8.532;2023-04-07T09:24:31;9.32;;;6.53;;
23080;SDS011;11708;50.570;8.532;2023-04-07T09:27:16;8.05;;;5.90;;
23080;SDS011;11708;50.570;8.532;2023-04-07T09:29:43;9.52;;;6.53;;
23080;SDS011;11708;50.570;8.532;2023-04-07T09:32:11;8.82;;;6.03;;
23080;SDS011;11708;50.570;8.532;2023-04-07T09:34:38;9.35;;;6.15;;
23080;SDS011;11708;50.570;8.532;2023-04-07T09:37:05;9.77;;;6.50;;
23080;SDS011;11708;50.570;8.532;2023-04-07T09:39:33;8.98;;;6.28;;
23080;SDS011;11708;50.570;8.532;2023-04-07T09:42:18;9.13;;;6.47;;
23080;SDS011;11708;50.570;8.532;2023-04-07T09:44:44;8.50;;;6.18;;
23080;SDS011;11708;50.570;8.532;2023-04-07T09:47:10;9.32;;;5.88;;
23080;SDS011;11708;50.570;8.532;2023-04-07T09:49:51;10.32;;;5.97;;
23080;SDS011;11708;50.570;8.532;2023-04-07T09:52:20;6.97;;;5.20;;
23080;SDS011;11708;50.570;8.532;2023-04-07T09:55:07;9.50;;;6.30;;
23080;SDS011;11708;50.570;8.532;2023-04-07T09:57:33;9.30;;;6.10;;
23080;SDS011;11708;50.570;8.532;2023-04-07T10:00:03;12.65;;;10.07;;
23080;SDS011;11708;50.570;8.532;2023-04-07T10:02:29;11.05;;;7.80;;
23080;SDS011;11708;50.570;8.532;2023-04-07T10:04:56;10.70;;;7.03;;
23080;SDS011;11708;50.570;8.532;2023-04-07T10:07:23;11.15;;;7.55;;
23080;SDS011;11708;50.570;8.532;2023-04-07T10:09:49;8.30;;;6.45;;
23080;SDS011;11708;50.570;8.532;2023-04-07T10:12:15;10.40;;;5.97;;
23080;SDS011;11708;50.570;8.532;2023-04-07T10:14:42;7.40;;;5.57;;
23080;SDS011;11708;50.570;8.532;2023-04-07T10:17:11;7.38;;;5.82;;
23080;SDS011;11708;50.570;8.532;2023-04-07T10:19:42;8.00;;;6.72;;
23080;SDS011;11708;50.570;8.532;2023-04-07T10:22:09;9.20;;;6.72;;
23080;SDS011;11708;50.570;8.532;2023-04-07T10:27:23;6.95;;;5.45;;
23080;SDS011;11708;50.570;8.532;2023-04-07T10:29:54;7.63;;;5.43;;
23080;SDS011;11708;50.570;8.532;2023-04-07T10:32:22;6.53;;;5.20;;
23080;SDS011;11708;50.570;8.532;2023-04-07T10:37:20;7.68;;;5.40;;
23080;SDS011;11708;50.570;8.532;2023-04-07T10:39:50;6.18;;;5.00;;
23080;SDS011;11708;50.570;8.532;2023-04-07T10:45:03;31.83;;;6.68;;
23080;SDS011;11708;50.570;8.532;2023-04-07T10:47:32;23.73;;;15.85;;
23080;SDS011;11708;50.570;8.532;2023-04-07T10:50:14;14.82;;;8.73;;
23080;SDS011;11708;50.570;8.532;2023-04-07T10:52:48;10.18;;;6.22;;
23080;SDS011;11708;50.570;8.532;2023-04-07T10:55:35;8.10;;;5.43;;
23080;SDS011;11708;50.570;8.532;2023-04-07T11:03:25;9.20;;;5.22;;
23080;SDS011;11708;50.570;8.532;2023-04-07T11:06:06;10.05;;;6.55;;
23080;SDS011;11708;50.570;8.532;2023-04-07T11:08:36;9.98;;;6.47;;
23080;SDS011;11708;50.570;8.532;2023-04-07T11:11:02;8.35;;;5.30;;
23080;SDS011;11708;50.570;8.532;2023-04-07T11:13:40;8.77;;;5.65;;
23080;SDS011;11708;50.570;8.532;2023-04-07T11:16:10;8.40;;;5.47;;
23080;SDS011;11708;50.570;8.532;2023-04-07T11:18:36;6.93;;;5.22;;
23080;SDS011;11708;50.570;8.532;2023-04-07T11:21:03;7.68;;;5.63;;
23080;SDS011;11708;50.570;8.532;2023-04-07T11:23:39;7.38;;;5.72;;
23080;SDS011;11708;50.570;8.532;2023-04-07T11:26:06;7.10;;;4.90;;
23080;SDS011;11708;50.570;8.532;2023-04-07T11:28:32;12.73;;;10.27;;
23080;SDS011;11708;50.570;8.532;2023-04-07T11:30:58;10.32;;;6.88;;
23080;SDS011;11708;50.570;8.532;2023-04-07T11:33:29;13.30;;;7.80;;
23080;SDS011;11708;50.570;8.532;2023-04-07T11:38:33;8.27;;;6.38;;
23080;SDS011;11708;50.570;8.532;2023-04-07T11:41:09;10.43;;;7.85;;
23080;SDS011;11708;50.570;8.532;2023-04-07T11:43:35;9.88;;;6.30;;
23080;SDS011;11708;50.570;8.532;2023-04-07T11:48:32;9.65;;;6.30;;
23080;SDS011;11708;50.570;8.532;2023-04-07T11:50:59;7.05;;;5.50;;
23080;SDS011;11708;50.570;8.532;2023-04-07T11:53:30;8.77;;;5.82;;
23080;SDS011;11708;50.570;8.532;2023-04-07T11:56:05;13.73;;;8.15;;
23080;SDS011;11708;50.570;8.532;2023-04-07T11:58:45;65.50;;;32.33;;
23080;SDS011;11708;50.570;8.532;2023-04-07T12:01:18;16.30;;;10.90;;
23080;SDS011;11708;50.570;8.532;2023-04-07T12:03:59;11.27;;;7.65;;
23080;SDS011;11708;50.570;8.532;2023-04-07T12:06:30;9.55;;;6.95;;
23080;SDS011;11708;50.570;8.532;2023-04-07T12:09:25;10.55;;;6.40;;
23080;SDS011;11708;50.570;8.532;2023-04-07T12:11:51;8.45;;;6.30;;
23080;SDS011;11708;50.570;8.532;2023-04-07T12:14:17;125.70;;;14.82;;
23080;SDS011;11708;50.570;8.532;2023-04-07T12:16:42;12.65;;;6.05;;
23080;SDS011;11708;50.570;8.532;2023-04-07T12:19:09;8.73;;;5.55;;
23080;SDS011;11708;50.570;8.532;2023-04-07T12:21:34;10.40;;;5.93;;
23080;SDS011;11708;50.570;8.532;2023-04-07T12:24:00;7.80;;;6.22;;
23080;SDS011;11708;50.570;8.532;2023-04-07T12:26:26;6.80;;;5.65;;
23080;SDS011;11708;50.570;8.532;2023-04-07T12:28:52;7.63;;;5.43;;
23080;SDS011;11708;50.570;8.532;2023-04-07T12:31:17;7.88;;;5.45;;
23080;SDS011;11708;50.570;8.532;2023-04-07T12:33:43;7.82;;;5.63;;
23080;SDS011;11708;50.570;8.532;2023-04-07T12:36:09;7.35;;;5.45;;
23080;SDS011;11708;50.570;8.532;2023-04-07T12:38:34;6.53;;;5.00;;
23080;SDS011;11708;50.570;8.532;2023-04-07T12:41:00;7.75;;;5.00;;
23080;SDS011;11708;50.570;8.532;2023-04-07T12:43:28;7.28;;;4.97;;
23080;SDS011;11708;50.570;8.532;2023-04-07T12:45:54;6.55;;;5.13;;
23080;SDS011;11708;50.570;8.532;2023-04-07T12:48:19;7.65;;;5.32;;
23080;SDS011;11708;50.570;8.532;2023-04-07T12:50:45;7.93;;;4.95;;
23080;SDS011;11708;50.570;8.532;2023-04-07T12:53:11;6.85;;;4.88;;
23080;SDS011;11708;50.570;8.532;2023-04-07T12:55:37;7.63;;;5.30;;
23080;SDS011;11708;50.570;8.532;2023-04-07T12:58:02;6.65;;;5.10;;
23080;SDS011;11708;50.570;8.532;2023-04-07T13:00:28;7.03;;;5.18;;
23080;SDS011;11708;50.570;8.532;2023-04-07T13:02:54;6.28;;;4.68;;
23080;SDS011;11708;50.570;8.532;2023-04-07T13:05:20;6.57;;;4.32;;
23080;SDS011;11708;50.570;8.532;2023-04-07T13:07:46;5.82;;;4.45;;
23080;SDS011;11708;50.570;8.532;2023-04-07T13:10:11;6.53;;;4.63;;
23080;SDS011;11708;50.570;8.532;2023-04-07T13:12:37;5.70;;;4.40;;
23080;SDS011;11708;50.570;8.532;2023-04-07T13:15:04;5.10;;;4.22;;
23080;SDS011;11708;50.570;8.532;2023-04-07T13:17:30;7.30;;;4.43;;
23080;SDS011;11708;50.570;8.532;2023-04-07T13:19:56;5.78;;;4.50;;
23080;SDS011;11708;50.570;8.532;2023-04-07T13:22:22;4.97;;;3.92;;
23080;SDS011;11708;50.570;8.532;2023-04-07T13:24:47;5.15;;;4.10;;
23080;SDS011;11708;50.570;8.532;2023-04-07T13:27:13;4.70;;;3.20;;
23080;SDS011;11708;50.570;8.532;2023-04-07T13:29:39;3.70;;;2.97;;
23080;SDS011;11708;50.570;8.532;2023-04-07T13:32:06;4.50;;;2.60;;
23080;SDS011;11708;50.570;8.532;2023-04-07T13:34:33;3.42;;;2.63;;
23080;SDS011;11708;50.570;8.532;2023-04-07T13:37:00;2.50;;;1.80;;
23080;SDS011;11708;50.570;8.532;2023-04-07T13:39:28;2.20;;;2.00;;
23080;SDS011;11708;50.570;8.532;2023-04-07T13:41:56;2.30;;;2.10;;
23080;SDS011;11708;50.570;8.532;2023-04-07T13:44:25;4.22;;;2.15;;
23080;SDS011;11708;50.570;8.532;2023-04-07T13:46:53;2.40;;;1.98;;
23080;SDS011;11708;50.570;8.532;2023-04-07T13:49:20;3.85;;;1.48;;
23080;SDS011;11708;50.570;8.532;2023-04-07T13:51:47;1.30;;;1.20;;
23080;SDS011;11708;50.570;8.532;2023-04-07T13:54:15;3.53;;;1.40;;
23080;SDS011;11708;50.570;8.532;2023-04-07T13:56:42;1.67;;;1.52;;
23080;SDS011;11708;50.570;8.532;2023-04-07T13:59:08;1.70;;;1.50;;
23080;SDS011;11708;50.570;8.532;2023-04-07T14:01:34;2.10;;;1.40;;
23080;SDS011;11708;50.570;8.532;2023-04-07T14:04:04;1.20;;;1.00;;
23080;SDS011;11708;50.570;8.532;2023-04-07T14:06:31;1.40;;;1.30;;
23080;SDS011;11708;50.570;8.532;2023-04-07T14:08:58;1.30;;;1.20;;
23080;SDS011;11708;50.570;8.532;2023-04-07T14:11:23;1.50;;;1.40;;
23080;SDS011;11708;50.570;8.532;2023-04-07T14:13:52;1.63;;;1.42;;
23080;SDS011;11708;50.570;8.532;2023-04-07T14:16:19;1.65;;;1.13;;
23080;SDS011;11708;50.570;8.532;2023-04-07T14:18:45;1.50;;;1.10;;
23080;SDS011;11708;50.570;8.532;2023-04-07T14:21:11;1.27;;;1.10;;
23080;SDS011;11708;50.570;8.532;2023-04-07T14:23:36;1.33;;;1.20;;
23080;SDS011;11708;50.570;8.532;2023-04-07T14:26:02;1.90;;;1.27;;
23080;SDS011;11708;50.570;8.532;2023-04-07T14:28:30;1.50;;;1.40;;
23080;SDS011;11708;50.570;8.532;2023-04-07T14:30:56;1.70;;;1.40;;
23080;SDS011;11708;50.570;8.532;2023-04-07T14:33:22;1.40;;;1.30;;
23080;SDS011;11708;50.570;8.532;2023-04-07T14:35:47;1.90;;;1.30;;
23080;SDS011;11708;50.570;8.532;2023-04-07T14:38:14;1.75;;;1.20;;
23080;SDS011;11708;50.570;8.532;2023-04-07T14:40:40;1.70;;;1.60;;
23080;SDS011;11708;50.570;8.532;2023-04-07T14:43:06;2.40;;;1.50;;
23080;SDS011;11708;50.570;8.532;2023-04-07T14:45:32;1.58;;;1.45;;
23080;SDS011;11708;50.570;8.532;2023-04-07T14:48:00;3.35;;;1.73;;
23080;SDS011;11708;50.570;8.532;2023-04-07T14:50:26;2.72;;;1.48;;
23080;SDS011;11708;50.570;8.532;2023-04-07T14:52:52;2.47;;;1.50;;
23080;SDS011;11708;50.570;8.532;2023-04-07T14:55:18;1.75;;;1.60;;